Time;durP1;ratioP1;P1;durP2;ratioP2;P2;SDS_P1;SDS_P2;PMS_P1;PMS_P2;Temp;Humidity;BMP_temperature;BMP_pressure;BME280_temperature;BME280_humidity;BME280_pressure;Samples;Min_cycle;Max_cycle;Signal;HPM_P1;HPM_P2
2022/06/21 00:00:32;;;;;;;4.47;3.63;;;;;;;;;;5053584;28;20488;-53
2022/06/21 00:03:07;;;;;;;9.90;4.17;;;;;;;;;;5053788;28;20783;-53
2022/06/21 00:05:34;;;;;;;6.17;3.57;;;;;;;;;;5053352;28;20434;-53
2022/06/21 00:08:02;;;;;;;5.10;3.77;;;;;;;;;;5053721;28;20444;-53
2022/06/21 00:10:28;;;;;;;16.00;4.03;;;;;;;;;;5053427;28;20891;-53
2022/06/21 00:12:53;;;;;;;4.60;4.10;;;;;;;;;;5053667;28;20401;-54
2022/06/21 00:15:19;;;;;;;4.27;3.60;;;;;;;;;;5053593;28;20916;-55
2022/06/21 00:17:48;;;;;;;5.27;3.90;;;;;;;;;;5053769;28;20429;-53
2022/06/21 00:20:18;;;;;;;4.43;4.10;;;;;;;;;;5053214;28;20408;-54
2022/06/21 00:22:44;;;;;;;3.77;3.33;;;;;;;;;;5053467;28;20828;-53
2022/06/21 00:25:21;;;;;;;4.43;4.03;;;;;;;;;;5053493;28;20401;-53
2022/06/21 00:27:47;;;;;;;4.00;3.70;;;;;;;;;;5053253;28;20449;-52
2022/06/21 00:30:14;;;;;;;4.67;4.23;;;;;;;;;;5053024;28;20773;-53
2022/06/21 00:32:41;;;;;;;9.50;4.73;;;;;;;;;;5053315;28;20398;-53
2022/06/21 00:35:11;;;;;;;4.80;3.90;;;;;;;;;;5053316;28;20426;-53
2022/06/21 00:37:37;;;;;;;8.00;4.37;;;;;;;;;;5053627;28;20403;-53
2022/06/21 00:40:07;;;;;;;3.73;3.43;;;;;;;;;;5053118;28;20406;-52
2022/06/21 00:42:36;;;;;;;3.90;3.60;;;;;;;;;;5052921;28;20427;-53
2022/06/21 00:45:12;;;;;;;5.13;3.97;;;;;;;;;;5053030;28;20405;-55
2022/06/21 00:47:52;;;;;;;5.60;3.90;;;;;;;;;;5052913;28;20802;-54
2022/06/21 00:50:28;;;;;;;5.30;4.07;;;;;;;;;;5053054;28;20402;-55
2022/06/21 00:53:02;;;;;;;4.90;4.40;;;;;;;;;;5052758;28;20411;-54
2022/06/21 00:55:33;;;;;;;4.83;4.20;;;;;;;;;;5052822;28;20928;-53
2022/06/21 00:57:59;;;;;;;6.50;4.93;;;;;;;;;;5052825;28;20812;-53
2022/06/21 01:00:25;;;;;;;5.20;4.77;;;;;;;;;;5052449;28;20959;-54
2022/06/21 01:02:51;;;;;;;7.20;4.60;;;;;;;;;;5052062;28;20770;-53
2022/06/21 01:05:17;;;;;;;10.10;5.30;;;;;;;;;;5052174;28;20769;-53
2022/06/21 01:07:43;;;;;;;10.27;6.50;;;;;;;;;;5052460;28;20461;-53
2022/06/21 01:10:12;;;;;;;9.27;4.60;;;;;;;;;;5052282;28;20405;-53
2022/06/21 01:12:45;;;;;;;5.17;4.70;;;;;;;;;;5052617;28;20409;-53
2022/06/21 01:15:20;;;;;;;6.60;5.60;;;;;;;;;;5052458;28;20448;-53
2022/06/21 01:17:51;;;;;;;5.93;5.13;;;;;;;;;;5051635;28;20427;-53
2022/06/21 01:20:20;;;;;;;5.30;4.80;;;;;;;;;;5052063;28;20444;-53
2022/06/21 01:22:51;;;;;;;6.73;5.57;;;;;;;;;;5052390;28;20481;-53
2022/06/21 01:25:23;;;;;;;5.70;5.20;;;;;;;;;;5052606;28;20409;-53
2022/06/21 01:27:51;;;;;;;10.13;5.27;;;;;;;;;;5052167;28;20536;-53
2022/06/21 01:30:17;;;;;;;5.40;4.90;;;;;;;;;;5051757;28;20405;-53
2022/06/21 01:32:43;;;;;;;7.97;7.17;;;;;;;;;;5052191;28;20413;-54
2022/06/21 01:35:12;;;;;;;6.47;5.40;;;;;;;;;;5052139;28;20962;-54
2022/06/21 01:37:38;;;;;;;11.30;5.50;;;;;;;;;;5052121;28;20394;-54
2022/06/21 01:40:04;;;;;;;8.73;6.23;;;;;;;;;;5051904;28;20412;-56
2022/06/21 01:42:32;;;;;;;13.10;6.00;;;;;;;;;;5051906;28;20418;-53
2022/06/21 01:45:01;;;;;;;9.27;5.80;;;;;;;;;;5051877;28;20489;-53
2022/06/21 01:47:31;;;;;;;10.47;5.00;;;;;;;;;;5051964;28;20968;-53
2022/06/21 01:50:00;;;;;;;9.60;5.60;;;;;;;;;;5051804;28;20772;-54
2022/06/21 01:52:27;;;;;;;6.73;6.03;;;;;;;;;;5051693;28;20789;-53
2022/06/21 01:55:02;;;;;;;13.63;6.00;;;;;;;;;;5051872;28;20433;-53
2022/06/21 01:57:29;;;;;;;7.43;5.10;;;;;;;;;;5051807;28;20405;-53
2022/06/21 01:59:58;;;;;;;7.73;4.80;;;;;;;;;;5051698;28;20417;-53
2022/06/21 02:02:27;;;;;;;7.30;4.40;;;;;;;;;;5051596;28;20429;-53
2022/06/21 02:04:56;;;;;;;7.70;4.30;;;;;;;;;;5051726;28;20417;-53
2022/06/21 02:07:24;;;;;;;6.47;5.30;;;;;;;;;;5051738;28;20449;-54
2022/06/21 02:09:54;;;;;;;5.97;5.10;;;;;;;;;;5051570;28;20892;-52
2022/06/21 02:12:20;;;;;;;10.73;6.37;;;;;;;;;;5051459;28;20413;-55
2022/06/21 02:14:49;;;;;;;5.57;5.07;;;;;;;;;;5051710;28;20485;-54
2022/06/21 02:17:18;;;;;;;8.23;5.10;;;;;;;;;;5051687;28;20403;-53
2022/06/21 02:19:56;;;;;;;6.43;4.97;;;;;;;;;;5051586;28;20416;-53
2022/06/21 02:22:23;;;;;;;10.23;5.40;;;;;;;;;;5051338;28;20838;-53
2022/06/21 02:24:50;;;;;;;7.87;5.70;;;;;;;;;;5051879;28;20409;-53
2022/06/21 02:27:18;;;;;;;6.03;5.07;;;;;;;;;;5051753;28;20453;-53
2022/06/21 02:29:46;;;;;;;5.63;5.13;;;;;;;;;;5054731;28;20450;-53
2022/06/21 02:32:39;;;;;;;8.90;5.93;;;;;;;;;;5055409;28;20425;-53
2022/06/21 02:35:08;;;;;;;8.03;6.27;;;;;;;;;;5054460;28;21105;-52
2022/06/21 02:37:36;;;;;;;8.83;6.60;;;;;;;;;;5055564;28;20465;-53
2022/06/21 02:40:05;;;;;;;7.43;6.73;;;;;;;;;;5055364;28;20390;-54
2022/06/21 02:42:31;;;;;;;13.73;8.30;;;;;;;;;;5055410;28;20426;-53
2022/06/21 02:45:01;;;;;;;10.27;6.97;;;;;;;;;;5055387;28;20594;-53
2022/06/21 02:47:29;;;;;;;7.40;6.70;;;;;;;;;;5055200;28;20468;-53
2022/06/21 02:50:07;;;;;;;6.90;6.30;;;;;;;;;;5055104;28;20767;-53
2022/06/21 02:52:38;;;;;;;7.13;6.43;;;;;;;;;;5055078;28;20920;-53
2022/06/21 02:55:10;;;;;;;7.93;5.73;;;;;;;;;;5055177;28;20448;-53
2022/06/21 02:57:40;;;;;;;7.63;5.17;;;;;;;;;;5055170;28;20768;-52
2022/06/21 03:00:07;;;;;;;7.77;5.20;;;;;;;;;;5054828;28;20460;-53
2022/06/21 03:02:33;;;;;;;6.70;5.30;;;;;;;;;;5055080;28;20884;-53
2022/06/21 03:05:08;;;;;;;14.70;6.10;;;;;;;;;;5054964;28;20402;-53
2022/06/21 03:07:41;;;;;;;12.50;5.43;;;;;;;;;;5054955;28;20448;-53
2022/06/21 03:10:11;;;;;;;10.20;5.20;;;;;;;;;;5054709;28;20889;-53
2022/06/21 03:12:37;;;;;;;10.17;6.37;;;;;;;;;;5054805;28;20413;-53
2022/06/21 03:15:07;;;;;;;6.67;5.93;;;;;;;;;;5054812;28;20771;-53
2022/06/21 03:17:37;;;;;;;10.20;5.87;;;;;;;;;;5054847;28;20408;-53
2022/06/21 03:20:03;;;;;;;8.67;5.97;;;;;;;;;;5054575;28;20433;-53
2022/06/21 03:22:34;;;;;;;11.97;6.43;;;;;;;;;;5054466;28;20421;-53
2022/06/21 03:25:03;;;;;;;9.07;6.00;;;;;;;;;;5053511;28;20772;-53
2022/06/21 03:27:31;;;;;;;10.20;5.50;;;;;;;;;;5054678;28;20461;-53
2022/06/21 03:29:57;;;;;;;8.93;5.90;;;;;;;;;;5054413;28;20897;-53
2022/06/21 03:32:24;;;;;;;6.97;5.73;;;;;;;;;;5054213;28;20450;-53
2022/06/21 03:34:50;;;;;;;9.07;5.60;;;;;;;;;;5054433;28;20393;-53
2022/06/21 03:37:17;;;;;;;7.87;5.30;;;;;;;;;;5054218;28;20769;-53
2022/06/21 03:42:30;;;;;;;7.30;6.37;;;;;;;;;;5054172;28;20443;-53
2022/06/21 03:44:59;;;;;;;7.10;6.10;;;;;;;;;;5054251;28;20433;-53
2022/06/21 03:47:29;;;;;;;7.27;5.93;;;;;;;;;;5054081;28;20827;-53
2022/06/21 03:50:07;;;;;;;8.10;5.80;;;;;;;;;;5054650;28;20401;-53
2022/06/21 03:52:46;;;;;;;6.43;5.67;;;;;;;;;;5053979;28;20460;-54
2022/06/21 03:55:20;;;;;;;7.00;5.80;;;;;;;;;;5054061;28;20483;-53
2022/06/21 03:57:51;;;;;;;9.60;6.47;;;;;;;;;;5054124;28;20398;-53
2022/06/21 04:00:17;;;;;;;8.70;7.00;;;;;;;;;;5054026;28;20405;-53
2022/06/21 04:03:04;;;;;;;9.50;6.03;;;;;;;;;;5053993;28;20402;-53
2022/06/21 04:05:37;;;;;;;8.80;6.90;;;;;;;;;;5053641;28;20414;-53
2022/06/21 04:08:16;;;;;;;7.60;5.77;;;;;;;;;;5053828;28;20771;-53
2022/06/21 04:10:46;;;;;;;7.57;6.20;;;;;;;;;;5053460;28;20435;-54
2022/06/21 04:13:19;;;;;;;10.30;6.13;;;;;;;;;;5053675;28;20390;-53
2022/06/21 04:15:49;;;;;;;8.33;6.30;;;;;;;;;;5053658;28;20782;-53
2022/06/21 04:18:19;;;;;;;10.20;6.90;;;;;;;;;;5053674;28;20390;-53
2022/06/21 04:21:04;;;;;;;7.83;6.30;;;;;;;;;;5053310;28;20414;-53
2022/06/21 04:23:37;;;;;;;11.50;6.70;;;;;;;;;;5053555;28;20481;-53
2022/06/21 04:26:10;;;;;;;13.87;10.60;;;;;;;;;;5053403;28;20445;-53
2022/06/21 04:28:42;;;;;;;8.23;5.87;;;;;;;;;;5053455;28;20397;-53
2022/06/21 04:31:13;;;;;;;7.80;6.97;;;;;;;;;;5052967;28;20501;-54
2022/06/21 04:33:47;;;;;;;14.73;7.63;;;;;;;;;;5053340;28;20406;-53
2022/06/21 04:36:25;;;;;;;10.33;7.63;;;;;;;;;;5053250;28;20454;-54
2022/06/21 04:39:06;;;;;;;14.13;6.20;;;;;;;;;;5053321;28;20402;-53
2022/06/21 04:41:35;;;;;;;9.73;7.10;;;;;;;;;;5052941;28;20930;-53
2022/06/21 04:44:10;;;;;;;9.70;7.17;;;;;;;;;;5053087;28;20455;-53
2022/06/21 04:46:42;;;;;;;12.17;7.77;;;;;;;;;;5053016;28;20457;-53
2022/06/21 04:49:26;;;;;;;12.43;7.90;;;;;;;;;;5052973;28;20455;-53
2022/06/21 04:51:52;;;;;;;11.70;7.23;;;;;;;;;;5052688;28;20471;-53
2022/06/21 04:54:26;;;;;;;9.50;6.57;;;;;;;;;;5052784;28;20798;-54
2022/06/21 04:57:01;;;;;;;13.03;7.17;;;;;;;;;;5052931;28;20429;-53
2022/06/21 04:59:27;;;;;;;7.97;6.90;;;;;;;;;;5052813;28;20404;-54
2022/06/21 05:01:53;;;;;;;14.70;6.63;;;;;;;;;;5052563;28;20417;-53
2022/06/21 05:04:39;;;;;;;10.93;7.20;;;;;;;;;;5052708;28;20393;-53
2022/06/21 05:07:08;;;;;;;12.97;7.53;;;;;;;;;;5052558;28;20498;-53
2022/06/21 05:09:35;;;;;;;8.53;7.60;;;;;;;;;;5052591;28;20450;-54
2022/06/21 05:12:04;;;;;;;9.30;7.80;;;;;;;;;;5052348;28;20425;-54
2022/06/21 05:14:34;;;;;;;12.77;8.67;;;;;;;;;;5052558;28;20410;-54
2022/06/21 05:17:00;;;;;;;13.63;7.17;;;;;;;;;;5052475;28;20746;-53
2022/06/21 05:19:34;;;;;;;11.17;6.60;;;;;;;;;;5052312;28;20513;-53
2022/06/21 05:22:28;;;;;;;8.27;6.53;;;;;;;;;;5052096;28;20433;-54
2022/06/21 05:24:55;;;;;;;8.33;6.30;;;;;;;;;;5044107;28;20418;-53
2022/06/21 05:27:21;;;;;;;10.90;6.40;;;;;;;;;;5052323;28;20502;-53
2022/06/21 05:29:51;;;;;;;7.80;5.73;;;;;;;;;;5052071;28;20807;-53
2022/06/21 05:32:19;;;;;;;9.93;5.63;;;;;;;;;;5051992;28;20825;-53
2022/06/21 05:34:48;;;;;;;10.57;5.30;;;;;;;;;;5052237;28;20410;-55
2022/06/21 05:37:34;;;;;;;5.40;4.57;;;;;;;;;;5052158;28;20889;-53
2022/06/21 05:40:03;;;;;;;12.90;4.00;;;;;;;;;;5052044;28;20448;-53
2022/06/21 05:42:29;;;;;;;6.53;3.53;;;;;;;;;;5051780;28;20942;-53
2022/06/21 05:45:00;;;;;;;5.07;3.57;;;;;;;;;;5052244;28;20563;-53
2022/06/21 05:47:34;;;;;;;5.00;3.57;;;;;;;;;;5051956;28;21019;-54
2022/06/21 05:50:01;;;;;;;3.80;3.30;;;;;;;;;;5052024;28;20408;-55
2022/06/21 05:52:31;;;;;;;6.77;3.40;;;;;;;;;;5051709;28;20466;-53
2022/06/21 05:55:20;;;;;;;3.50;3.23;;;;;;;;;;5051776;28;20432;-53
2022/06/21 05:57:49;;;;;;;5.83;3.23;;;;;;;;;;5048882;28;20421;-53
2022/06/21 06:00:21;;;;;;;3.47;3.20;;;;;;;;;;5051472;28;20395;-53
2022/06/21 06:02:50;;;;;;;9.80;2.80;;;;;;;;;;5051543;28;20447;-54
2022/06/21 06:05:25;;;;;;;4.33;3.43;;;;;;;;;;5051629;28;20406;-53
2022/06/21 06:07:57;;;;;;;6.27;3.50;;;;;;;;;;5051675;28;20531;-53
2022/06/21 06:10:23;;;;;;;12.60;3.53;;;;;;;;;;5051583;28;20482;-54
2022/06/21 06:12:57;;;;;;;7.53;3.67;;;;;;;;;;5051734;28;20481;-53
2022/06/21 06:15:25;;;;;;;6.07;3.03;;;;;;;;;;5051668;28;20402;-53
2022/06/21 06:18:00;;;;;;;3.00;2.70;;;;;;;;;;5051597;28;20462;-55
2022/06/21 06:20:26;;;;;;;5.83;3.60;;;;;;;;;;5050638;28;20469;-57
2022/06/21 06:23:00;;;;;;;9.63;2.57;;;;;;;;;;5051003;28;20403;-55
2022/06/21 06:25:32;;;;;;;7.50;3.13;;;;;;;;;;5051066;28;20405;-56
2022/06/21 06:28:04;;;;;;;6.90;4.07;;;;;;;;;;5051001;28;21032;-54
2022/06/21 06:30:39;;;;;;;8.70;3.00;;;;;;;;;;5050498;28;20460;-55
2022/06/21 06:33:21;;;;;;;4.73;3.10;;;;;;;;;;5051445;28;20399;-53
2022/06/21 06:35:48;;;;;;;10.13;3.40;;;;;;;;;;5051052;28;20429;-55
2022/06/21 06:38:14;;;;;;;5.60;2.60;;;;;;;;;;5050925;28;20969;-53
2022/06/21 06:40:44;;;;;;;6.80;2.90;;;;;;;;;;5050360;28;20445;-53
2022/06/21 06:43:17;;;;;;;4.40;3.00;;;;;;;;;;5048402;28;20405;-54
2022/06/21 06:45:43;;;;;;;6.73;3.27;;;;;;;;;;5043876;28;20405;-53
2022/06/21 06:48:13;;;;;;;6.43;4.07;;;;;;;;;;5050719;28;20397;-53
2022/06/21 06:50:44;;;;;;;4.77;3.30;;;;;;;;;;5048538;28;20444;-54
2022/06/21 06:53:22;;;;;;;9.20;4.00;;;;;;;;;;5050116;28;20400;-53
2022/06/21 06:55:51;;;;;;;8.27;3.87;;;;;;;;;;5051162;28;20432;-54
2022/06/21 06:58:17;;;;;;;4.87;3.03;;;;;;;;;;5051490;28;20410;-54
2022/06/21 07:00:46;;;;;;;4.57;2.83;;;;;;;;;;5050921;28;20478;-53
2022/06/21 07:03:17;;;;;;;5.43;3.27;;;;;;;;;;5051112;28;20433;-53
2022/06/21 07:05:58;;;;;;;6.03;3.00;;;;;;;;;;5050791;28;20486;-54
2022/06/21 07:08:40;;;;;;;5.80;3.67;;;;;;;;;;5051356;28;20496;-54
2022/06/21 07:11:21;;;;;;;4.97;3.17;;;;;;;;;;5050879;28;20998;-54
2022/06/21 07:13:47;;;;;;;6.63;3.17;;;;;;;;;;5051170;28;20913;-55
2022/06/21 07:16:16;;;;;;;5.30;3.30;;;;;;;;;;5053192;28;21110;-54
2022/06/21 07:18:53;;;;;;;4.57;3.13;;;;;;;;;;5054818;28;20422;-54
2022/06/21 07:21:20;;;;;;;12.83;3.33;;;;;;;;;;5054480;28;20428;-53
2022/06/21 07:23:46;;;;;;;3.93;2.83;;;;;;;;;;5054773;28;20384;-53
2022/06/21 07:26:19;;;;;;;9.77;5.20;;;;;;;;;;5054619;28;20529;-53
2022/06/21 07:28:50;;;;;;;4.07;2.80;;;;;;;;;;5054593;28;20397;-53
2022/06/21 07:31:20;;;;;;;3.60;3.30;;;;;;;;;;5054163;28;20475;-54
2022/06/21 07:33:52;;;;;;;5.70;3.30;;;;;;;;;;5054547;28;20374;-54
2022/06/21 07:36:20;;;;;;;10.83;2.87;;;;;;;;;;5054490;28;20429;-53
2022/06/21 07:38:49;;;;;;;5.83;2.63;;;;;;;;;;5054537;28;20402;-54
2022/06/21 07:41:20;;;;;;;4.10;2.63;;;;;;;;;;5054030;28;20398;-53
2022/06/21 07:43:48;;;;;;;3.20;2.20;;;;;;;;;;5053085;28;20424;-54
2022/06/21 07:46:34;;;;;;;14.97;2.97;;;;;;;;;;5054331;28;20970;-54
2022/06/21 07:49:06;;;;;;;5.10;2.33;;;;;;;;;;5054166;28;20868;-55
2022/06/21 07:51:38;;;;;;;3.23;2.53;;;;;;;;;;5053633;28;20907;-53
2022/06/21 07:54:25;;;;;;;9.07;2.60;;;;;;;;;;5053696;28;20461;-54
2022/06/21 07:56:55;;;;;;;3.77;2.50;;;;;;;;;;5053512;28;20434;-54
2022/06/21 07:59:23;;;;;;;3.73;2.10;;;;;;;;;;5053923;28;20761;-55
2022/06/21 08:07:28;;;;;;;2.83;2.50;;;;;;;;;;5053866;28;20827;-53
2022/06/21 08:09:54;;;;;;;3.20;2.17;;;;;;;;;;5053884;28;20852;-54
2022/06/21 08:12:20;;;;;;;6.20;2.10;;;;;;;;;;5053438;28;20402;-55
2022/06/21 08:14:46;;;;;;;2.80;2.50;;;;;;;;;;5053743;28;20468;-55
2022/06/21 08:17:20;;;;;;;2.80;2.00;;;;;;;;;;5053588;28;20409;-56
2022/06/21 08:19:51;;;;;;;4.70;2.03;;;;;;;;;;5053658;28;20485;-53
2022/06/21 08:22:17;;;;;;;3.63;1.80;;;;;;;;;;5053526;28;20480;-55
2022/06/21 08:24:52;;;;;;;3.30;2.27;;;;;;;;;;5053520;28;20397;-54
2022/06/21 08:27:24;;;;;;;4.23;1.90;;;;;;;;;;5053295;28;20473;-54
2022/06/21 08:29:58;;;;;;;3.50;2.40;;;;;;;;;;5051185;28;20989;-54
2022/06/21 08:32:33;;;;;;;5.43;2.07;;;;;;;;;;5042264;28;20516;-54
2022/06/21 08:35:03;;;;;;;3.80;2.10;;;;;;;;;;5033432;28;20398;-54
2022/06/21 08:37:40;;;;;;;4.83;2.27;;;;;;;;;;5033327;28;20415;-54
2022/06/21 08:40:11;;;;;;;3.07;1.70;;;;;;;;;;5033118;28;20485;-54
2022/06/21 08:42:40;;;;;;;2.60;2.40;;;;;;;;;;5033197;28;20858;-54
2022/06/21 08:45:43;;;;;;;3.00;2.17;;;;;;;;;;5033207;28;20404;-55
2022/06/21 08:48:28;;;;;;;3.07;1.87;;;;;;;;;;5032960;28;20825;-54
2022/06/21 08:50:53;;;;;;;3.53;2.10;;;;;;;;;;5032763;28;20940;-55
2022/06/21 08:53:27;;;;;;;4.00;1.90;;;;;;;;;;5033103;28;20406;-54
2022/06/21 08:56:00;;;;;;;2.30;1.93;;;;;;;;;;5032865;28;20418;-54
2022/06/21 08:58:38;;;;;;;2.57;1.67;;;;;;;;;;5032918;28;20394;-55
2022/06/21 09:01:23;;;;;;;3.37;1.90;;;;;;;;;;5032641;28;20929;-55
2022/06/21 09:04:09;;;;;;;4.50;1.80;;;;;;;;;;5032942;28;20438;-55
2022/06/21 09:06:45;;;;;;;4.67;2.10;;;;;;;;;;5032688;28;20460;-55
2022/06/21 09:09:23;;;;;;;6.57;2.20;;;;;;;;;;5032723;28;20398;-55
2022/06/21 09:11:55;;;;;;;7.17;2.23;;;;;;;;;;5032577;28;20425;-55
2022/06/21 09:14:21;;;;;;;3.97;1.90;;;;;;;;;;5032770;28;20398;-56
2022/06/21 09:17:01;;;;;;;1.97;1.77;;;;;;;;;;5046306;28;20939;-55
2022/06/21 09:19:47;;;;;;;1.97;1.80;;;;;;;;;;5052294;28;20409;-55
2022/06/21 09:22:19;;;;;;;3.37;2.23;;;;;;;;;;5052242;28;20425;-55
2022/06/21 09:24:47;;;;;;;3.67;1.87;;;;;;;;;;5052295;28;20402;-55
2022/06/21 09:27:16;;;;;;;4.23;1.90;;;;;;;;;;5052158;28;20445;-56
2022/06/21 09:29:48;;;;;;;2.07;1.80;;;;;;;;;;5052013;28;20406;-54
2022/06/21 09:32:14;;;;;;;2.70;2.27;;;;;;;;;;5052259;28;20931;-55
2022/06/21 09:34:50;;;;;;;4.60;2.07;;;;;;;;;;5052152;28;20405;-55
2022/06/21 09:37:16;;;;;;;2.43;2.03;;;;;;;;;;5052135;28;20406;-55
2022/06/21 09:39:47;;;;;;;2.77;1.70;;;;;;;;;;5051395;28;20397;-55
2022/06/21 09:42:12;;;;;;;1.60;1.50;;;;;;;;;;5051689;28;20428;-55
2022/06/21 09:44:51;;;;;;;2.33;1.60;;;;;;;;;;5051979;28;20397;-55
2022/06/21 09:47:36;;;;;;;2.20;2.10;;;;;;;;;;5051898;28;20503;-55
2022/06/21 09:50:12;;;;;;;2.80;1.93;;;;;;;;;;5051852;28;20401;-55
2022/06/21 09:52:44;;;;;;;2.53;2.33;;;;;;;;;;5052188;28;20420;-55
2022/06/21 09:55:18;;;;;;;6.67;2.27;;;;;;;;;;5051693;28;20496;-55
2022/06/21 09:57:48;;;;;;;3.67;2.17;;;;;;;;;;5051835;28;20398;-54
2022/06/21 10:00:22;;;;;;;4.10;2.10;;;;;;;;;;5051680;28;20467;-54
2022/06/21 10:03:13;;;;;;;4.90;2.10;;;;;;;;;;5051492;28;20486;-54
2022/06/21 10:05:57;;;;;;;4.67;2.77;;;;;;;;;;5051849;28;20405;-56
2022/06/21 10:08:26;;;;;;;2.13;1.70;;;;;;;;;;5051689;28;20469;-54
2022/06/21 10:11:02;;;;;;;2.73;2.30;;;;;;;;;;5051157;28;20424;-54
2022/06/21 10:13:52;;;;;;;2.30;2.10;;;;;;;;;;5051660;28;20455;-54
2022/06/21 10:16:21;;;;;;;3.80;1.77;;;;;;;;;;5048738;28;20991;-55
2022/06/21 10:18:53;;;;;;;5.47;2.30;;;;;;;;;;5051466;28;20431;-54
2022/06/21 10:21:38;;;;;;;6.20;2.40;;;;;;;;;;5051089;28;20418;-55
2022/06/21 10:24:04;;;;;;;6.03;2.27;;;;;;;;;;5051550;28;20898;-54
2022/06/21 10:26:59;;;;;;;2.23;1.80;;;;;;;;;;5051483;28;20505;-54
2022/06/21 10:29:35;;;;;;;2.80;2.07;;;;;;;;;;5046449;28;20469;-55
2022/06/21 10:32:21;;;;;;;2.27;2.00;;;;;;;;;;5051133;28;20422;-55
2022/06/21 10:34:50;;;;;;;3.47;1.93;;;;;;;;;;5051584;28;20446;-54
2022/06/21 10:37:25;;;;;;;2.60;2.33;;;;;;;;;;5051459;28;20405;-55
2022/06/21 10:39:51;;;;;;;3.97;1.90;;;;;;;;;;5051365;28;20487;-56
2022/06/21 10:45:09;;;;;;;5.03;1.53;;;;;;;;;;5051742;28;20408;-58
2022/06/21 10:47:37;;;;;;;2.77;1.70;;;;;;;;;;5051112;28;20510;-57
2022/06/21 10:50:07;;;;;;;1.70;1.60;;;;;;;;;;5053193;28;20389;-57
2022/06/21 10:52:49;;;;;;;7.33;2.23;;;;;;;;;;5054868;28;20947;-57
2022/06/21 10:55:21;;;;;;;4.03;1.70;;;;;;;;;;5055088;28;20430;-58
2022/06/21 10:58:05;;;;;;;4.30;2.03;;;;;;;;;;5055210;28;20492;-58
2022/06/21 11:03:42;;;;;;;5.10;2.43;;;;;;;;;;5055493;28;20950;-56
2022/06/21 11:06:08;;;;;;;4.50;1.90;;;;;;;;;;5054930;28;20401;-57
2022/06/21 11:08:34;;;;;;;2.50;1.90;;;;;;;;;;5054857;28;20429;-57
2022/06/21 11:11:18;;;;;;;2.23;1.93;;;;;;;;;;5055007;28;20458;-55
2022/06/21 11:13:48;;;;;;;3.13;2.30;;;;;;;;;;5054805;28;20435;-56
2022/06/21 11:16:24;;;;;;;2.17;2.00;;;;;;;;;;5054818;28;20916;-55
2022/06/21 11:18:50;;;;;;;4.57;2.03;;;;;;;;;;5054487;28;20404;-54
2022/06/21 11:21:35;;;;;;;4.43;1.97;;;;;;;;;;5054726;28;20424;-55
2022/06/21 11:24:06;;;;;;;3.70;1.83;;;;;;;;;;5057404;28;20427;-56
2022/06/21 11:26:42;;;;;;;5.70;1.90;;;;;;;;;;5054459;28;20458;-56
2022/06/21 11:29:08;;;;;;;1.73;1.63;;;;;;;;;;5054574;28;20422;-56
2022/06/21 11:31:54;;;;;;;3.33;1.90;;;;;;;;;;5054186;28;20792;-56
2022/06/21 11:34:20;;;;;;;3.53;1.93;;;;;;;;;;5054416;28;20419;-56
2022/06/21 11:37:01;;;;;;;3.90;1.93;;;;;;;;;;5054423;28;20402;-56
2022/06/21 11:39:27;;;;;;;4.80;2.40;;;;;;;;;;5054561;28;20487;-56
2022/06/21 11:42:12;;;;;;;2.00;1.90;;;;;;;;;;5053044;28;20999;-56
2022/06/21 11:44:38;;;;;;;3.43;1.97;;;;;;;;;;5054166;28;20401;-56
2022/06/21 11:47:07;;;;;;;3.10;2.20;;;;;;;;;;5054738;28;20510;-56
2022/06/21 11:49:33;;;;;;;3.33;2.30;;;;;;;;;;5053912;28;20404;-56
2022/06/21 11:52:16;;;;;;;3.60;2.30;;;;;;;;;;5052353;28;20422;-56
2022/06/21 11:54:48;;;;;;;3.03;2.17;;;;;;;;;;5053462;28;20784;-56
2022/06/21 11:57:34;;;;;;;3.53;2.10;;;;;;;;;;5054271;28;20493;-55
2022/06/21 12:00:07;;;;;;;3.67;2.00;;;;;;;;;;5053772;28;20402;-54
2022/06/21 12:03:06;;;;;;;3.20;2.40;;;;;;;;;;5053135;28;20414;-54
2022/06/21 12:05:51;;;;;;;3.67;2.53;;;;;;;;;;5041454;28;20414;-54
2022/06/21 12:08:43;;;;;;;2.47;2.30;;;;;;;;;;5053759;28;20452;-54
2022/06/21 12:11:29;;;;;;;3.00;2.33;;;;;;;;;;5052297;28;20434;-54
2022/06/21 12:14:02;;;;;;;1.93;1.70;;;;;;;;;;5049589;28;20444;-54
2022/06/21 12:17:00;;;;;;;3.60;1.97;;;;;;;;;;5053693;28;20900;-55
2022/06/21 12:19:30;;;;;;;4.50;1.83;;;;;;;;;;5041298;28;20422;-55
2022/06/21 12:22:05;;;;;;;5.00;2.50;;;;;;;;;;5053254;28;20423;-54
2022/06/21 12:24:31;;;;;;;2.20;2.10;;;;;;;;;;5053408;28;20403;-54
2022/06/21 12:26:57;;;;;;;6.80;2.20;;;;;;;;;;5053670;28;20892;-54
2022/06/21 12:29:23;;;;;;;2.30;2.07;;;;;;;;;;5053474;28;20481;-55
2022/06/21 12:31:50;;;;;;;6.03;2.40;;;;;;;;;;5053142;28;20440;-54
2022/06/21 12:34:35;;;;;;;7.87;2.77;;;;;;;;;;5053443;28;20408;-54
2022/06/21 12:37:06;;;;;;;2.20;2.10;;;;;;;;;;5053200;28;20389;-54
2022/06/21 12:39:40;;;;;;;2.60;2.10;;;;;;;;;;5053276;28;20901;-54
2022/06/21 12:42:21;;;;;;;2.40;2.20;;;;;;;;;;5052934;28;20418;-54
2022/06/21 12:44:53;;;;;;;4.80;2.13;;;;;;;;;;5053192;28;20489;-54
2022/06/21 12:47:29;;;;;;;3.17;2.13;;;;;;;;;;5053040;28;20456;-54
2022/06/21 12:50:14;;;;;;;2.40;2.00;;;;;;;;;;5052927;28;20397;-54
2022/06/21 12:52:40;;;;;;;5.53;2.60;;;;;;;;;;5053039;28;20397;-54
2022/06/21 12:55:24;;;;;;;2.73;2.10;;;;;;;;;;5052870;28;20423;-55
2022/06/21 12:57:56;;;;;;;3.33;1.87;;;;;;;;;;5052937;28;20483;-55
2022/06/21 13:00:27;;;;;;;3.40;2.23;;;;;;;;;;5052266;28;20401;-55
2022/06/21 13:03:12;;;;;;;2.27;2.07;;;;;;;;;;5052727;28;20893;-55
2022/06/21 13:05:38;;;;;;;1.97;1.77;;;;;;;;;;5052800;28;20401;-54
2022/06/21 13:08:04;;;;;;;3.30;2.03;;;;;;;;;;5052615;28;20968;-55
2022/06/21 13:10:33;;;;;;;5.73;1.93;;;;;;;;;;5052319;28;20901;-56
2022/06/21 13:13:19;;;;;;;2.17;1.80;;;;;;;;;;5051639;28;20398;-55
2022/06/21 13:15:54;;;;;;;2.60;2.10;;;;;;;;;;5052696;28;20469;-54
2022/06/21 13:18:20;;;;;;;2.70;1.90;;;;;;;;;;5052612;28;20420;-55
2022/06/21 13:21:05;;;;;;;3.23;2.10;;;;;;;;;;5052151;28;20559;-55
2022/06/21 13:23:33;;;;;;;3.50;2.10;;;;;;;;;;5052650;28;20429;-55
2022/06/21 13:26:06;;;;;;;3.00;1.93;;;;;;;;;;5052534;28;20488;-55
2022/06/21 13:28:47;;;;;;;1.87;1.77;;;;;;;;;;5052469;28;20766;-56
2022/06/21 13:31:13;;;;;;;3.63;2.50;;;;;;;;;;5051949;28;20425;-57
2022/06/21 13:33:39;;;;;;;2.50;2.30;;;;;;;;;;5052124;28;20408;-55
2022/06/21 13:36:14;;;;;;;3.20;1.90;;;;;;;;;;5052200;28;20401;-55
2022/06/21 13:38:50;;;;;;;4.70;1.83;;;;;;;;;;5050818;28;20417;-55
2022/06/21 13:44:45;;;;;;;5.53;2.07;;;;;;;;;;5030405;28;20457;-55
2022/06/21 13:47:14;;;;;;;5.20;2.30;;;;;;;;;;5031876;28;21080;-55
2022/06/21 13:49:47;;;;;;;2.03;1.83;;;;;;;;;;5031876;28;20398;-55
2022/06/21 13:52:15;;;;;;;1.50;1.40;;;;;;;;;;5031066;28;20497;-54
2022/06/21 13:54:51;;;;;;;2.10;1.80;;;;;;;;;;5031818;28;20422;-55
2022/06/21 13:57:20;;;;;;;3.77;1.83;;;;;;;;;;5030722;28;20405;-55
2022/06/21 13:59:47;;;;;;;4.60;2.20;;;;;;;;;;5031987;28;20434;-56
2022/06/21 14:02:21;;;;;;;3.10;1.70;;;;;;;;;;5031456;28;20539;-55
2022/06/21 14:04:49;;;;;;;4.90;2.20;;;;;;;;;;5032211;28;20402;-55
2022/06/21 14:07:34;;;;;;;4.67;2.00;;;;;;;;;;5031836;28;20493;-54
2022/06/21 14:10:00;;;;;;;2.87;1.80;;;;;;;;;;5031795;28;20428;-55
2022/06/21 14:12:29;;;;;;;2.30;1.93;;;;;;;;;;5031604;28;20418;-55
2022/06/21 14:14:59;;;;;;;2.23;2.00;;;;;;;;;;5031732;28;20172;-56
2022/06/21 14:17:32;;;;;;;3.00;1.67;;;;;;;;;;5032026;28;20436;-56
2022/06/21 14:20:18;;;;;;;3.10;1.80;;;;;;;;;;5031741;28;20516;-55
2022/06/21 14:22:44;;;;;;;4.63;1.97;;;;;;;;;;5031613;28;20409;-55
2022/06/21 14:25:18;;;;;;;3.70;1.60;;;;;;;;;;5033729;28;20433;-55
2022/06/21 14:27:51;;;;;;;2.37;2.17;;;;;;;;;;5035784;28;20196;-55
2022/06/21 14:30:23;;;;;;;5.10;1.80;;;;;;;;;;5035393;28;20437;-55
2022/06/21 14:32:57;;;;;;;2.70;1.70;;;;;;;;;;5035727;28;20468;-55
2022/06/21 14:35:39;;;;;;;2.20;1.80;;;;;;;;;;5035664;28;20429;-55
2022/06/21 14:38:05;;;;;;;2.13;1.80;;;;;;;;;;5035570;28;20886;-55
2022/06/21 14:40:49;;;;;;;1.73;1.53;;;;;;;;;;5035194;28;20413;-55
2022/06/21 14:43:16;;;;;;;2.43;2.10;;;;;;;;;;5035527;28;20167;-55
2022/06/21 14:45:48;;;;;;;2.50;2.07;;;;;;;;;;5035464;28;20787;-54
2022/06/21 14:48:17;;;;;;;2.77;2.40;;;;;;;;;;5035614;28;20825;-54
2022/06/21 14:50:55;;;;;;;1.80;1.70;;;;;;;;;;5045381;28;20432;-54
2022/06/21 14:53:37;;;;;;;2.37;2.17;;;;;;;;;;5035179;28;20405;-54
2022/06/21 14:56:03;;;;;;;5.53;2.60;;;;;;;;;;5033812;28;20804;-54
2022/06/21 14:58:32;;;;;;;1.83;1.60;;;;;;;;;;5034972;28;20489;-55
2022/06/21 15:00:58;;;;;;;4.07;1.80;;;;;;;;;;5034734;28;20418;-54
2022/06/21 15:03:33;;;;;;;4.40;2.00;;;;;;;;;;5034980;28;20409;-54
2022/06/21 15:06:03;;;;;;;2.43;1.60;;;;;;;;;;5035114;28;20877;-54
2022/06/21 15:08:41;;;;;;;2.67;1.87;;;;;;;;;;5035064;28;20408;-54
2022/06/21 15:11:11;;;;;;;1.90;1.70;;;;;;;;;;5033360;28;20426;-55
2022/06/21 15:13:45;;;;;;;3.97;1.97;;;;;;;;;;5035053;28;20865;-54
2022/06/21 15:16:22;;;;;;;3.23;1.93;;;;;;;;;;5034983;28;21016;-54
2022/06/21 15:18:51;;;;;;;9.53;3.37;;;;;;;;;;5035032;28;20836;-54
2022/06/21 15:21:20;;;;;;;5.23;2.13;;;;;;;;;;5034870;28;20407;-55
2022/06/21 15:24:02;;;;;;;3.07;2.00;;;;;;;;;;5035043;28;20394;-54
2022/06/21 15:26:49;;;;;;;6.23;2.70;;;;;;;;;;5034799;28;20452;-54
2022/06/21 15:29:18;;;;;;;4.93;2.30;;;;;;;;;;5034544;28;20911;-54